Timothy Martin

Olheiro - Brentford
4 Dez 2028
Segunda-feira
Processo

Personalidade

Adaptabilidade (1) Ambição (16) Controvérsia (5) Lealdade (13) Pressão (3) Profissionalismo (7) Espírito Esportivo (19) Temperamento (1)

Perfil

Estilo de Treinamento Democrático
Licença Nacional B
Determinação 13
Gestão de Pessoas 10
Motivação 6
Disciplina 7
Satisfação no Trabalho
100%
Fadiga
0%
Função Olheiro
Salário 71.4K p/s
Contrato 14.03.2029

Desempenho

Comportamento Bom
Eficácia do Treinamento
43%
Desenvolvimento do Jogador
60%
Prevenção de Lesões
70%
Implementação Tática
30%

Eventos Recentes

Participou de uma reunião de recrutamento agora
Participou de uma reunião de recrutamento agora
Recomendou um alvo de transferência agora
Recomendou um alvo de transferência agora
Recomendou um alvo de transferência 7d atrás
Recomendou um alvo de transferência 7d atrás
Recomendou um alvo de transferência 7d atrás
Recomendou um alvo de transferência 7d atrás

Monitorando agora

150
Jogador Clube Status Habilidade Confiança Observado Última observação Último voto
Giovanni Leoni Lincoln City Ativo 153 / 156 40% 2 14.08.2028 -
Alessio Insignito Spezia Ativo 98 / 122 40% 1 14.08.2028 -
Kasey McAteer Barnsley Perdido 147 / 133 62% 1 24.07.2028 -
Shea Lacey Crystal Palace Perdido 129 / 134 40% 3 05.06.2028 -
Miguel Figueiredo Benfica Ativo 124 / 123 40% 2 03.06.2028 -
Jan Bürger Northampton Town Ativo 122 / 133 40% 7 31.05.2028 -
Kerim Alajbegović Modena Ativo 137 / 133 40% 6 29.05.2028 -
Martim Cunha Porto Ativo 116 / 109 40% 8 28.05.2028 -
Mateus Mané Burnley Ativo 139 / 152 40% 7 28.05.2028 -
Eli Junior Kroupi Bournemouth Ativo 152 / 155 40% 8 27.05.2028 -
Ben Broggio Mansfield Town Ativo 107 / 125 40% 2 27.05.2028 -
Jake Evans Crewe Alexandra Ativo 104 / 132 40% 6 23.05.2028 -
Otto Stange Borussia Mönchengladbach Ativo 121 / 137 40% 2 22.05.2028 -
Rio Ngumoha Plymouth Argyle Ativo 136 / 140 40% 5 21.05.2028 -
Gabriel Mec Feirense Ativo 133 / 126 40% 3 21.05.2028 -
Fletcher Boyd Accrington Stanley Ativo 103 / 112 40% 2 17.05.2028 -
Giovanni Cantizano Fulham Ativo 127 / 119 40% 2 17.05.2028 -
Oskar Pietuszewski Estrela da Amadora Ativo 137 / 127 40% 4 16.05.2028 -
Trey Nyoni Rotherham United Ativo 142 / 140 40% 11 15.05.2028 -
Ryan Kavuma-McQueen Accrington Stanley Ativo 119 / 135 40% 4 14.05.2028 -
Gabe Forsyth Colchester United Ativo 113 / 112 40% 8 11.05.2028 -
Oscar Schwartau Norwich City Ativo 131 / 135 40% 3 05.05.2028 -
Sindre Walle Egeli Udinese Ativo 138 / 138 40% 6 04.05.2028 -
Omar Khedr Gillingham Ativo 117 / 111 40% 4 03.05.2028 -
İsak Vural Audace Cerignola Ativo 123 / 132 40% 1 03.05.2028 -
Leo Pecover Swindon Town Ativo 99 / 101 40% 3 01.05.2028 -
Amin Nabizada Exeter City Ativo 120 / 113 40% 1 29.04.2028 -
Ibrahim Fullah Charlton Athletic Ativo 119 / 117 40% 3 25.04.2028 -
Suleman Sani Werder Bremen Ativo 135 / 131 40% 1 22.04.2028 -
Christos Mouzakitis Hull City Ativo 142 / 145 40% 2 19.04.2028 -
Vincenzo Damiano Atalanta Ativo 101 / 111 40% 1 19.04.2028 -
Eduardo Fernandes Benfica Ativo 123 / 122 40% 1 15.04.2028 -
Luca Williams-Barnett Walsall Ativo 123 / 123 40% 3 10.04.2028 -
Bernardo Lima Porto Ativo 112 / 120 40% 4 08.04.2028 -
Henrique Carmo Sochi Ativo 117 / 138 40% 3 04.04.2028 -
Luke Brooke-Smith Chesterfield Ativo 98 / 108 40% 2 04.04.2028 -
André Miranda Porto Ativo 111 / 115 40% 3 03.04.2028 -
Daniel Banjaqui Benfica Ativo 129 / 127 40% 2 03.04.2028 -
Endrick Boca Juniors Ativo 153 / 167 40% 1 02.04.2028 -
Rafael Camacho Sporting CP Ativo 114 / 109 40% 1 01.04.2028 -
Lander Astiazarán Real Sociedad Ativo 108 / 109 40% 1 27.03.2028 -
Honest Ahanor Atalanta Ativo 142 / 138 40% 3 26.03.2028 -
João Abreu Porto Ativo 98 / 113 40% 1 24.03.2028 -
Josh Acheampong Everton Ativo 141 / 150 40% 7 21.03.2028 -
Louis Zecevic-John Colchester United Ativo 90 / 114 40% 1 19.03.2028 -
Tomás Peixoto Porto Ativo 95 / 111 40% 1 17.03.2028 -
Alphadjo Cissé Lecce Ativo 124 / 130 40% 1 14.03.2028 -
Babis Kostoulas Oxford United Ativo 141 / 144 40% 3 10.03.2028 -
Peter Amidu Acquah Asante Kotoko Ativo 92 / 105 40% 1 01.03.2028 -
Josh Nichols Oldham Athletic Ativo 130 / 123 40% 2 29.02.2028 -
Zane Albarus Shrewsbury Town Ativo 110 / 111 40% 1 27.02.2028 -
Mads Abrahamsen Zenit Penza Ativo 96 / 87 40% 1 22.02.2028 -
Julian Hall Real Salt Lake Ativo 95 / 127 40% 2 12.02.2028 -
Colin Guske Orlando City Ativo 93 / 107 40% 1 11.02.2028 -
Bazoumana Touré Newcastle United Ativo 141 / 156 40% 3 10.02.2028 -
Mao Hosoya Santos Ativo 134 / 135 67% 1 01.01.2028 Aprovar
Ayden Heaven Portsmouth Ativo 144 / 148 40% 4 31.12.2027 -
Tyler Fletcher Rotherham United Ativo 113 / 112 40% 3 29.12.2027 -
Victor Hernandez Santa Fe Ativo 127 / 122 40% 2 28.12.2027 -
Ruben Ramos LA Galaxy Ativo 105 / 120 40% 1 28.12.2027 -
Nana Nuhu WAFA Ativo 87 / 101 40% 2 27.12.2027 -
Gideon Manaseh Ikorodu City Ativo 94 / 100 40% 1 27.12.2027 -
Archie Gray Southampton Ativo 151 / 152 40% 2 26.12.2027 -
Jude Terry Los Angeles Football Club Ativo 101 / 89 40% 1 22.12.2027 -
Jonny Shore New York City Ativo 96 / 96 40% 2 19.12.2027 -
Harbor Miller LA Galaxy Ativo 104 / 98 40% 1 18.12.2027 -
Jayden Danns Bradford City Ativo 132 / 134 40% 1 17.12.2027 -
Pedro Baltika Ativo 151 / 147 40% 2 13.12.2027 -
Caleb Yirenkyi Coventry City Ativo 147 / 146 40% 4 09.12.2027 -
Matias Siltanen Malmo FF Ativo 119 / 136 40% 1 08.12.2027 -
Esquerdinha Notts County Ativo 125 / 128 40% 2 07.12.2027 -
Agustín Obregón River Plate Ativo 120 / 114 40% 1 07.12.2027 -
Olivier Mambwa Young Boys Ativo 109 / 125 40% 1 28.11.2027 -
Azizbek To'lqinbekov Bunyodkor Ativo 98 / 112 40% 1 25.11.2027 -
Ignacio Fernández Boston River Ativo 93 / 101 40% 1 24.11.2027 -
Somtochuwku Ezenabo Kwara United Ativo 95 / 102 40% 1 17.11.2027 -
Hosea Michael Remo Stars Ativo 81 / 91 40% 3 16.11.2027 -
Lucas Bergvall Tottenham Ativo 154 / 146 40% 3 06.11.2027 -
Joel Ezra Enyimba Ativo 93 / 105 40% 1 06.11.2027 -
Josh Torquato FC Dallas Ativo 99 / 108 40% 1 03.11.2027 -
Aaron Cresswell Stoke City Ativo 117 / 108 62% 1 12.07.2027 Aprovar
Eliás Montiel Borussia Dortmund Ativo 129 / 146 40% 2 21.06.2027 -
Kiani Inge Groningen Ativo 112 / 115 40% 1 21.06.2027 -
Sascha Britschgi AC Milan Ativo 121 / 127 40% 4 02.06.2027 -
Stanislav Agkatsev Brentford Ativo 132 / 133 66% 1 01.06.2027 Aprovar
Godwin Oham Warri Wolves Ativo 82 / 86 40% 1 30.05.2027 -
Nestory Irankunda Watford Ativo 117 / 129 40% 3 27.05.2027 -
Gonçalo Oliveira Benfica Ativo 102 / 117 40% 2 27.05.2027 -
Mattia Rutigliano Pro Vercelli Ativo 92 / 98 40% 1 27.05.2027 -
Ethan Williams Peterborough United Ativo 117 / 118 40% 2 26.05.2027 -
Riley Owen Stevenage Ativo 95 / 104 40% 1 26.05.2027 -
Mustapha Jawad Kano Pillars Ativo 90 / 88 40% 1 23.05.2027 -
Abubakar Garba Nasarawa United Ativo 93 / 103 40% 1 20.05.2027 -
Ezra Mayers West Ham United Ativo 123 / 124 40% 4 15.05.2027 -
Kirill Glebov CSKA Moscow Ativo 116 / 120 40% 2 15.05.2027 -
Riyad Idrissi Cagliari Ativo 121 / 125 40% 1 15.05.2027 -
Olivier Leroux Mouscron Ativo 104 / 103 40% 2 09.05.2027 -
Ronan Kpakio AC Milan Ativo 120 / 117 40% 2 08.05.2027 -
Daniel Dennis Ikorodu City Ativo 95 / 98 40% 2 03.05.2027 -
Issa Yusuf Shooting Stars Ativo 87 / 89 40% 1 25.04.2027 -
Maxim Radchenko Rostov Ativo 73 / 76 40% 1 22.04.2027 -
Konta Ismaily Ativo 77 / 110 40% 1 13.04.2027 -
Kobbie Mainoo Manchester United Ativo 151 / 156 40% 4 09.04.2027 -
Tiago Freitas Benfica Ativo 107 / 119 40% 2 09.04.2027 -
Jenson Jones Walsall Ativo 85 / 92 40% 1 07.04.2027 -
James Dornelly Peterborough United Ativo 95 / 106 40% 1 06.04.2027 -
Tommaso Cecotti Carpi Ativo 85 / 95 40% 2 01.04.2027 -
Amine Boukamir Charleroi Ativo 91 / 97 40% 1 28.03.2027 -
Cam Bragg West Ham United Ativo 117 / 128 40% 1 27.03.2027 -
Dean Jali Platinum Stars Ativo 89 / 92 40% 1 23.03.2027 -
Charlie Gray Fleetwood Town Ativo 94 / 97 40% 1 23.03.2027 -
Jacques Ekomié Wrexham Ativo 135 / 134 62% 1 06.01.2027 Aprovar
Nicolas Jackson Aston Villa Ativo 153 / 143 40% 2 31.12.2026 -
Kevin Fulham Ativo 160 / 139 40% 1 31.12.2026 -
Etiosa Ighodaro Kaizer Chiefs Ativo 126 / 116 40% 4 29.12.2026 -
Rodrigo Muniz Fulham Ativo 129 / 139 40% 5 29.12.2026 -
Tyrese Campbell Sheffield United Ativo 138 / 128 40% 1 28.12.2026 -
Jørgen Strand Larsen Brighton Ativo 144 / 147 40% 1 27.12.2026 -
Georginio Rutter Brighton Ativo 143 / 142 40% 3 26.12.2026 -
Yousef Salech Cardiff City Perdido 127 / 121 40% 1 25.12.2026 -
Joe Gelhardt Hull City Ativo 131 / 127 40% 1 23.12.2026 -
Emanuel Emegha Chelsea Ativo 132 / 135 40% 2 21.12.2026 -
Wilson Isidor Sunderland Ativo 138 / 130 40% 1 17.12.2026 -
Edwin Asamoah Berekum Chelsea Ativo 81 / 88 40% 1 17.12.2026 -
Iliman N'Diaye Everton Ativo 153 / 159 40% 1 14.12.2026 Mais informações
Wandile Duba ASO Chlef Ativo 115 / 111 40% 1 11.12.2026 -
Simphiwe Selepe Orlando Pirates Ativo 97 / 113 40% 1 10.12.2026 -
Bryan Mbeumo Manchester United Ativo 154 / 163 40% 1 09.12.2026 -
Philippe Ndinga Philadelphia Union Ativo 99 / 121 40% 1 09.12.2026 -
Cemran Dansin Orlando Pirates Ativo 99 / 129 40% 4 07.12.2026 -
Cody Gakpo Liverpool Ativo 150 / 166 40% 3 05.12.2026 -
Talles Magno New York City Ativo 141 / 118 40% 1 05.12.2026 -
Morrison Agyemang Charlotte Football Club Ativo 121 / 131 40% 1 03.12.2026 -
Ilyas Ansah Hull City Ativo 131 / 126 40% 1 23.11.2026 -
Aune Heggebø West Bromwich Albion Ativo 132 / 127 40% 1 18.11.2026 -
Bénie Traoré New York City Ativo 120 / 116 40% 1 17.11.2026 -
Kamaldeen Atiemo Wa All Stars Ativo 89 / 105 40% 1 16.11.2026 -
Leonardo Campana New England Revolution Ativo 122 / 120 40% 2 12.11.2026 -
Pedro Bravo FC Midtjylland Ativo 132 / 136 40% 1 09.11.2026 -
Matheus Cunha Manchester United Ativo 150 / 153 40% 1 06.11.2026 -
Kévin Denkey FC Cincinnati Ativo 140 / 115 40% 1 29.10.2026 -
Jesus Ferreira Seattle Sounders Ativo 113 / 117 40% 1 29.10.2026 -
Ayoub Jabbari FC Cincinnati Ativo 98 / 112 40% 1 22.10.2026 -
Mohamed-Ali Cho Hull City Ativo 133 / 141 40% 1 21.10.2026 -
Cheikh Sabaly Vancouver Whitecaps Ativo 128 / 118 40% 1 14.10.2026 -
Yahaya Ibrahim Plateau United Ativo 77 / 90 40% 1 08.10.2026 -
Moisés Caicedo Chelsea Ativo 160 / 167 40% 1 20.09.2026 -
Martín Zubimendi Arsenal Ativo 173 / 155 40% 1 17.09.2026 -
Florian Wirtz Liverpool Ativo 179 / 173 40% 1 15.09.2026 -
Quinten Timber Crystal Palace Ativo 144 / 157 40% 1 07.09.2026 -